Dalton City, Illinois
Current Conditions -  °F | °C
As of 7:54 AM on Sunday 21 Dec 2014 (Local Time) from KDEC Reporting Station
Haze Haze  
Wind Chill: -5°   Ceiling: 3400
Heat Index:   Visibility: 5mi
Dew Point: -2°   Wind: 14mph
Humidity: 85%   Direction: 170°S
Pressure: 30.23"   Gusts: NA
Location:  39.71°N, 88.8°W
Report Text: KDEC 211354Z 17012KT 5SM BR OVC034 01/M02 A3023 RMK AO2 SLP244 T00061017
Loading
Personal Weather Stations






























Interactive Weather Map New forecast layout! Learn more

10-Day Weather Forecast

Advertisements
Track Severe Weather on mobile